»·PEaware :: AAL418 KOAK-KLAX

AAL418 :: KOAK-KLAX

FLIGHT INFORMATION

Flight Status: Arrived
Operator:
American Airlines
More flights by this operator :: More flights under this callsign
Pilot: Ryan L. (28399)
Aircraft: BOEING 737-800
(B738)
More flights by this aircraft type
Origin: KOAK Metro Oakland Intl
United States
Destination: KLAX Los Angeles Intl
United States
More flights between these airports :: More routes between these airports
Route: CNDEL4 EBAYE BURGL IRNMN2
File this flight plan on PilotEdge
Remarks:
Altitude:
(Current/Filed)
31,000ft
Speed:
(Current/Filed)
430kts
Departed: 30-Jul-20 11:20 AM
Arrived: 30-Jul-20 12:24 PM
Distance/Time
Traveled:
293nm/1:04
Distance/Time
To Go:
Arrived

Flight Plot

Page will automatically refresh every two minutes.


Map Options




Map Legend


Flown Route
Filed Route
Departure Airport
Arrival Airport
Navaid (VOR, NDB)
Fix

Horizontal Profiles

Position Reports

Time Latitude Longitude Heading Altitude Ground
Speed
30-Jul-20 10:50 37.711266 -122.216481 141 16ft 0kts
30-Jul-20 10:51 37.711266 -122.216481 141 16ft 0kts
30-Jul-20 10:52 37.711266 -122.216481 141 16ft 0kts
30-Jul-20 10:53 37.711266 -122.216481 141 16ft 0kts
30-Jul-20 10:54 37.711266 -122.216481 141 16ft 0kts
30-Jul-20 10:55 37.711266 -122.216481 141 16ft 0kts
30-Jul-20 10:56 37.711266 -122.216481 141 16ft 0kts
30-Jul-20 10:57 37.711266 -122.216481 141 16ft 0kts
30-Jul-20 10:58 37.711266 -122.216481 141 16ft 0kts
30-Jul-20 10:59 37.711266 -122.216481 141 16ft 0kts
30-Jul-20 11:00 37.711266 -122.216481 141 16ft 0kts
30-Jul-20 11:01 37.711379 -122.216596 141 16ft 2kts
30-Jul-20 11:02 37.711648 -122.216654 243 16ft 1kts
30-Jul-20 11:03 37.711655 -122.216638 242 16ft 0kts
30-Jul-20 11:04 37.711655 -122.216638 242 16ft 0kts
30-Jul-20 11:05 37.711655 -122.216638 242 16ft 0kts
30-Jul-20 11:06 37.711655 -122.216638 242 16ft 0kts
30-Jul-20 11:07 37.711655 -122.216638 242 16ft 0kts
30-Jul-20 11:08 37.711655 -122.216638 242 16ft 0kts
30-Jul-20 11:09 37.711655 -122.216638 242 16ft 0kts
30-Jul-20 11:10 37.711655 -122.216638 242 16ft 0kts
30-Jul-20 11:11 37.711655 -122.216638 242 16ft 0kts
30-Jul-20 11:12 37.711655 -122.216638 242 16ft 0kts
30-Jul-20 11:13 37.711655 -122.216638 242 16ft 0kts
30-Jul-20 11:14 37.707717 -122.216874 220 15ft 19kts
30-Jul-20 11:15 37.702947 -122.213645 160 15ft 17kts
30-Jul-20 11:16 37.702742 -122.213576 169 15ft 0kts
30-Jul-20 11:17 37.702742 -122.213576 169 15ft 0kts
30-Jul-20 11:19 37.702066 -122.215088 306 15ft 24kts
30-Jul-20 11:20 37.726407 -122.251737 309 1157ft 192kts
30-Jul-20 11:21 37.761552 -122.304410 308 3160ft 200kts
30-Jul-20 11:22 37.786967 -122.364282 256 5114ft 203kts
30-Jul-20 11:23 37.737596 -122.396373 194 7551ft 222kts
30-Jul-20 11:24 37.677819 -122.414669 195 10070ft 220kts
30-Jul-20 11:25 37.612758 -122.435438 194 12410ft 264kts
30-Jul-20 11:26 37.537003 -122.459540 195 15079ft 295kts
30-Jul-20 11:27 37.457120 -122.434930 137 17722ft 329kts
30-Jul-20 11:28 37.393921 -122.344062 136 19468ft 370kts
30-Jul-20 11:29 37.323789 -122.248875 137 22129ft 376kts
30-Jul-20 11:30 37.252448 -122.152363 137 24584ft 378kts
30-Jul-20 11:31 37.180984 -122.055967 138 26762ft 379kts
30-Jul-20 11:32 37.108451 -121.958461 138 28423ft 388kts
30-Jul-20 11:33 37.033973 -121.858595 138 29911ft 397kts
30-Jul-20 11:34 36.957904 -121.756964 139 31084ft 411kts
30-Jul-20 11:34 36.893553 -121.671177 139 31102ft 400kts
30-Jul-20 11:36 36.802932 -121.550876 139 31133ft 415kts
30-Jul-20 11:36 36.735138 -121.461045 138 31098ft 425kts
30-Jul-20 11:38 36.634547 -121.328396 138 31203ft 473kts
30-Jul-20 11:39 36.544117 -121.209472 139 31103ft 470kts
30-Jul-20 11:39 36.468868 -121.110931 138 31102ft 472kts
30-Jul-20 11:40 36.381037 -120.989318 135 31091ft 476kts
30-Jul-20 11:42 36.279960 -120.844248 135 31072ft 476kts
30-Jul-20 11:42 36.207558 -120.740743 135 31073ft 476kts
30-Jul-20 11:43 36.120676 -120.616958 135 31073ft 476kts
30-Jul-20 11:44 36.033808 -120.493647 135 31073ft 477kts
30-Jul-20 11:45 35.946042 -120.369517 135 31058ft 477kts
30-Jul-20 11:46 35.854303 -120.250856 150 31070ft 466kts
30-Jul-20 11:47 35.744443 -120.166740 153 31068ft 465kts
30-Jul-20 11:48 35.633628 -120.083248 152 31073ft 465kts
30-Jul-20 11:49 35.523934 -120.000534 153 31046ft 455kts
30-Jul-20 11:50 35.424311 -119.925612 153 30787ft 391kts
30-Jul-20 11:51 35.335891 -119.859416 154 30997ft 376kts
30-Jul-20 11:52 35.242656 -119.780951 147 29932ft 429kts
30-Jul-20 11:53 35.148639 -119.693232 146 28200ft 445kts
30-Jul-20 11:54 35.048809 -119.600224 146 26701ft 451kts
30-Jul-20 11:56 34.933523 -119.493229 146 26050ft 447kts
30-Jul-20 11:56 34.850279 -119.418085 146 25180ft 439kts
30-Jul-20 11:57 34.755747 -119.333582 147 23550ft 403kts
30-Jul-20 11:58 34.667678 -119.256482 148 21754ft 379kts
30-Jul-20 11:59 34.583800 -119.183979 148 20063ft 368kts
30-Jul-20 12:00 34.501484 -119.111544 147 18466ft 362kts
30-Jul-20 12:01 34.421418 -119.041130 148 16524ft 352kts
30-Jul-20 12:02 34.342907 -118.973033 146 14514ft 343kts
30-Jul-20 12:03 34.268922 -118.905965 146 12288ft 318kts
30-Jul-20 12:04 34.203153 -118.845730 146 11986ft 283kts
30-Jul-20 12:05 34.140707 -118.784282 141 11508ft 294kts
30-Jul-20 12:06 34.082800 -118.721355 141 9347ft 281kts
30-Jul-20 12:07 34.030780 -118.655922 115 8765ft 279kts
30-Jul-20 12:08 34.020363 -118.564990 99 7998ft 258kts
30-Jul-20 12:09 34.012709 -118.483834 99 7508ft 244kts
30-Jul-20 12:10 34.019582 -118.402702 80 6519ft 242kts
30-Jul-20 12:11 34.030591 -118.325005 86 5940ft 241kts
30-Jul-20 12:12 34.040281 -118.246979 83 4118ft 212kts
30-Jul-20 12:13 34.047118 -118.186002 83 4020ft 183kts
30-Jul-20 12:14 34.053430 -118.124378 82 3998ft 191kts
30-Jul-20 12:15 34.031334 -118.073970 179 4019ft 181kts
30-Jul-20 12:16 33.982095 -118.087067 219 3996ft 179kts
30-Jul-20 12:17 33.960634 -118.137466 269 4006ft 175kts
30-Jul-20 12:18 33.956260 -118.196113 265 3172ft 173kts
30-Jul-20 12:19 33.951299 -118.246221 264 2267ft 144kts
30-Jul-20 12:20 33.946333 -118.295174 264 1567ft 146kts
30-Jul-20 12:21 33.941270 -118.343530 263 780ft 144kts
30-Jul-20 12:22 33.936568 -118.390629 263 110ft 125kts
30-Jul-20 12:23 33.936166 -118.403639 282 126ft 0kts
30-Jul-20 12:24 33.936166 -118.403639 282 126ft 0kts
30-Jul-20 12:25 33.936166 -118.403639 282 126ft 0kts
30-Jul-20 12:26 33.936173 -118.405245 263 128ft 28kts
30-Jul-20 12:27 33.938044 -118.407774 54 135ft 14kts
30-Jul-20 12:28 33.939470 -118.407206 38 133ft 0kts

Navigation Log

Ident Type
Flight plan parsing failed, navigation log unavailable